Omskiy-107 — UBWE3 — position and weather

sailwx.info

Track history (hours):
 
Tides and Currents Weather Stations Pressure Air Temp Water Temp Dewpoint Dewpoint Depression Visibility Wind Speed Wind Dir Waves Ship Positions

Omskiy-107

Last reported at 2017-Apr-21 11:06 UTC. Time now 2017-Apr-26 19:32 UTC.
Position N 45°34' E 036°50'.

Length 108 m; draft 3.2 m.

Type: Cargo ship. MMSI: 273343220.

Date/timePositionNaut miles runAvg speedWind from/ knotsBaromVisibWave heightAir tempDewpointWater temp
2017-Apr-21 11:06N 45°34' E 036°50'2 7.2
2017-Apr-21 10:51N 45°33' E 036°48'1 2.3
2017-Apr-21 10:30N 45°32' E 036°48'4 7.4
2017-Apr-21 10:00N 45°29' E 036°44'4 7.9
2017-Apr-21 09:30N 45°26' E 036°41'4 8.0
2017-Apr-21 09:00N 45°22' E 036°40'3 6.6
2017-Apr-21 08:30N 45°20' E 036°36'4 7.0
2017-Apr-21 08:00N 45°19' E 036°31'3 6.3
2017-Apr-21 07:30N 45°16' E 036°29'4 7.2
2017-Apr-21 07:00N 45°13' E 036°29'3 6.6
2017-Apr-21 06:30N 45°10' E 036°31'0 0.3
2017-Apr-21 05:58N 45°10' E 036°31'0 0.3
2017-Apr-21 05:29N 45°10' E 036°31'  
2017-Apr-17 12:16N 40°56' E 028°58'0 0.0
2017-Apr-16 03:44N 40°56' E 028°58'4 5.8
2017-Apr-16 03:07N 40°53' E 029°01'0 3.6
2017-Apr-16 03:00N 40°53' E 029°01'2 3.4
2017-Apr-16 02:30N 40°51' E 029°02'2 3.7
2017-Apr-16 01:57N 40°50' E 029°04'2 3.8
2017-Apr-16 01:28N 40°49' E 029°06'2 3.9
2017-Apr-16 00:59N 40°48' E 029°08'2 5.2
2017-Apr-16 00:30N 40°47' E 029°11'4 7.1
2017-Apr-16 00:00N 40°46' E 029°16'4 7.4
2017-Apr-15 23:30N 40°45' E 029°20'  
2017-Apr-13 00:35N 40°44' E 028°59'1 5.2
2017-Apr-13 00:29N 40°44' E 028°58'157 6.5
2017-Apr-12 00:11N 40°01' E 025°40'6 6.5
2017-Apr-11 23:17N 40°04' E 025°33'3 5.8
2017-Apr-11 22:49N 40°05' E 025°29'3 5.7
2017-Apr-11 22:16N 40°06' E 025°26'7 6.6
2017-Apr-11 21:12N 40°08' E 025°17'1 7.1
2017-Apr-11 21:00N 40°09' E 025°15'9 7.2
2017-Apr-11 19:41N 40°12' E 025°04'2 7.4
2017-Apr-11 19:29N 40°13' E 025°02'4 7.4
2017-Apr-11 18:59N 40°14' E 024°57'4 7.8
2017-Apr-11 18:30N 40°15' E 024°53'4 7.8
2017-Apr-11 17:58N 40°17' E 024°47'4 7.8
2017-Apr-11 17:30N 40°18' E 024°43'4 8.6
2017-Apr-11 17:00N 40°19' E 024°38'4 8.6
2017-Apr-11 16:30N 40°21' E 024°32'4 8.5
2017-Apr-11 15:59N 40°23' E 024°27'4 8.0
2017-Apr-11 15:29N 40°27' E 024°26'4 8.1
2017-Apr-11 14:57N 40°31' E 024°26'4 8.1
2017-Apr-11 14:30N 40°35' E 024°26'8 7.8
2017-Apr-11 13:30N 40°42' E 024°25'4 8.1
2017-Apr-11 13:00N 40°46' E 024°26'4 8.3
2017-Apr-11 12:30N 40°50' E 024°27'4 7.9
2017-Apr-11 12:00N 40°54' E 024°28'3 5.1
2017-Apr-11 11:30N 40°57' E 024°29'  
Track history (hours):
 
Tides and Currents Weather Stations Pressure Air Temp Water Temp Dewpoint Dewpoint Depression Visibility Wind Speed Wind Dir Waves Ship Positions

Omskiy-107

Last reported at 2017-Apr-21 11:06 UTC. Time now 2017-Apr-26 19:32 UTC.
Position N 45°34' E 036°50'.

Length 108 m; draft 3.2 m.

Type: Cargo ship. MMSI: 273343220.

Date/timePositionNaut miles runAvg speedWind from/ knotsBaromVisibWave heightAir tempDewpointWater temp
2017-Apr-21 11:06N 45°34' E 036°50'2 7.2
2017-Apr-21 10:51N 45°33' E 036°48'1 2.3
2017-Apr-21 10:30N 45°32' E 036°48'4 7.4
2017-Apr-21 10:00N 45°29' E 036°44'4 7.9
2017-Apr-21 09:30N 45°26' E 036°41'4 8.0
2017-Apr-21 09:00N 45°22' E 036°40'3 6.6
2017-Apr-21 08:30N 45°20' E 036°36'4 7.0
2017-Apr-21 08:00N 45°19' E 036°31'3 6.3
2017-Apr-21 07:30N 45°16' E 036°29'4 7.2
2017-Apr-21 07:00N 45°13' E 036°29'3 6.6
2017-Apr-21 06:30N 45°10' E 036°31'0 0.3
2017-Apr-21 05:58N 45°10' E 036°31'0 0.3
2017-Apr-21 05:29N 45°10' E 036°31'  
2017-Apr-17 12:16N 40°56' E 028°58'0 0.0
2017-Apr-16 03:44N 40°56' E 028°58'4 5.8
2017-Apr-16 03:07N 40°53' E 029°01'0 3.6
2017-Apr-16 03:00N 40°53' E 029°01'2 3.4
2017-Apr-16 02:30N 40°51' E 029°02'2 3.7
2017-Apr-16 01:57N 40°50' E 029°04'2 3.8
2017-Apr-16 01:28N 40°49' E 029°06'2 3.9
2017-Apr-16 00:59N 40°48' E 029°08'2 5.2
2017-Apr-16 00:30N 40°47' E 029°11'4 7.1
2017-Apr-16 00:00N 40°46' E 029°16'4 7.4
2017-Apr-15 23:30N 40°45' E 029°20'  
2017-Apr-13 00:35N 40°44' E 028°59'1 5.2
2017-Apr-13 00:29N 40°44' E 028°58'157 6.5
2017-Apr-12 00:11N 40°01' E 025°40'6 6.5
2017-Apr-11 23:17N 40°04' E 025°33'3 5.8
2017-Apr-11 22:49N 40°05' E 025°29'3 5.7
2017-Apr-11 22:16N 40°06' E 025°26'7 6.6
2017-Apr-11 21:12N 40°08' E 025°17'1 7.1
2017-Apr-11 21:00N 40°09' E 025°15'9 7.2
2017-Apr-11 19:41N 40°12' E 025°04'2 7.4
2017-Apr-11 19:29N 40°13' E 025°02'4 7.4
2017-Apr-11 18:59N 40°14' E 024°57'4 7.8
2017-Apr-11 18:30N 40°15' E 024°53'4 7.8
2017-Apr-11 17:58N 40°17' E 024°47'4 7.8
2017-Apr-11 17:30N 40°18' E 024°43'4 8.6
2017-Apr-11 17:00N 40°19' E 024°38'4 8.6
2017-Apr-11 16:30N 40°21' E 024°32'4 8.5
2017-Apr-11 15:59N 40°23' E 024°27'4 8.0
2017-Apr-11 15:29N 40°27' E 024°26'4 8.1
2017-Apr-11 14:57N 40°31' E 024°26'4 8.1
2017-Apr-11 14:30N 40°35' E 024°26'8 7.8
2017-Apr-11 13:30N 40°42' E 024°25'4 8.1
2017-Apr-11 13:00N 40°46' E 024°26'4 8.3
2017-Apr-11 12:30N 40°50' E 024°27'4 7.9
2017-Apr-11 12:00N 40°54' E 024°28'3 5.1
2017-Apr-11 11:30N 40°57' E 024°29'  

Dump ship's entire track history